University of Tampa, Florida
Current Conditions -  °F | °C
As of 8:53 PM on Thursday 20 Nov 2014 (Local Time) from KTPA Reporting Station
Broken Clouds Broken Clouds  
Wind Chill: 56°   Ceiling: 25000
Heat Index: 56°   Visibility: 10mi
Dew Point: 36°   Wind: 7mph
Humidity: 47%   Direction: 40°NE
Pressure: 30.23"   Gusts: NA
Location:  27.9407°N, 82.474°W
Report Text: KTPA 210153Z 04006KT 10SM SCT130 BKN250 13/02 A3023 RMK AO2 SLP237 T01330022
Loading
Personal Weather Stations






























Interactive Weather Map New forecast layout! Learn more

10-Day Weather Forecast

Advertisements
Track Severe Weather on mobile